sensor_id;sensor_type;location;lat;lon;timestamp;P1;durP1;ratioP1;P2;durP2;ratioP2
10882;SDS011;5494;51.796;10.952;2023-03-04T00:01:24;12.90;;;7.97;;
10882;SDS011;5494;51.796;10.952;2023-03-04T00:03:54;12.15;;;8.07;;
10882;SDS011;5494;51.796;10.952;2023-03-04T00:06:22;12.52;;;7.65;;
10882;SDS011;5494;51.796;10.952;2023-03-04T00:08:50;11.82;;;7.53;;
10882;SDS011;5494;51.796;10.952;2023-03-04T00:11:18;13.77;;;7.80;;
10882;SDS011;5494;51.796;10.952;2023-03-04T00:13:46;10.50;;;7.30;;
10882;SDS011;5494;51.796;10.952;2023-03-04T00:16:14;12.17;;;6.87;;
10882;SDS011;5494;51.796;10.952;2023-03-04T00:18:43;11.07;;;7.35;;
10882;SDS011;5494;51.796;10.952;2023-03-04T00:21:12;11.90;;;6.80;;
10882;SDS011;5494;51.796;10.952;2023-03-04T00:23:41;12.30;;;6.97;;
10882;SDS011;5494;51.796;10.952;2023-03-04T00:26:09;11.50;;;6.57;;
10882;SDS011;5494;51.796;10.952;2023-03-04T00:28:39;13.90;;;7.47;;
10882;SDS011;5494;51.796;10.952;2023-03-04T00:31:07;14.40;;;6.93;;
10882;SDS011;5494;51.796;10.952;2023-03-04T00:33:37;14.82;;;7.28;;
10882;SDS011;5494;51.796;10.952;2023-03-04T00:36:06;12.03;;;6.60;;
10882;SDS011;5494;51.796;10.952;2023-03-04T00:38:36;10.13;;;6.38;;
10882;SDS011;5494;51.796;10.952;2023-03-04T00:41:05;13.93;;;6.25;;
10882;SDS011;5494;51.796;10.952;2023-03-04T00:43:33;9.93;;;5.83;;
10882;SDS011;5494;51.796;10.952;2023-03-04T00:46:01;12.88;;;5.57;;
10882;SDS011;5494;51.796;10.952;2023-03-04T00:48:28;10.68;;;5.45;;
10882;SDS011;5494;51.796;10.952;2023-03-04T00:50:56;13.13;;;5.53;;
10882;SDS011;5494;51.796;10.952;2023-03-04T00:53:24;17.10;;;5.95;;
10882;SDS011;5494;51.796;10.952;2023-03-04T00:55:54;17.77;;;7.25;;
10882;SDS011;5494;51.796;10.952;2023-03-04T00:58:21;12.70;;;5.68;;
10882;SDS011;5494;51.796;10.952;2023-03-04T01:00:50;11.63;;;5.75;;
10882;SDS011;5494;51.796;10.952;2023-03-04T01:03:18;16.27;;;5.72;;
10882;SDS011;5494;51.796;10.952;2023-03-04T01:05:46;16.67;;;6.40;;
10882;SDS011;5494;51.796;10.952;2023-03-04T01:08:14;10.90;;;6.03;;
10882;SDS011;5494;51.796;10.952;2023-03-04T01:10:42;15.37;;;5.77;;
10882;SDS011;5494;51.796;10.952;2023-03-04T01:13:12;14.23;;;5.60;;
10882;SDS011;5494;51.796;10.952;2023-03-04T01:15:41;15.85;;;5.60;;
10882;SDS011;5494;51.796;10.952;2023-03-04T01:18:09;10.63;;;5.03;;
10882;SDS011;5494;51.796;10.952;2023-03-04T01:20:37;16.23;;;5.53;;
10882;SDS011;5494;51.796;10.952;2023-03-04T01:23:05;12.70;;;4.75;;
10882;SDS011;5494;51.796;10.952;2023-03-04T01:25:33;9.13;;;4.72;;
10882;SDS011;5494;51.796;10.952;2023-03-04T01:28:02;12.20;;;5.50;;
10882;SDS011;5494;51.796;10.952;2023-03-04T01:30:31;16.07;;;5.40;;
10882;SDS011;5494;51.796;10.952;2023-03-04T01:32:59;13.03;;;4.50;;
10882;SDS011;5494;51.796;10.952;2023-03-04T01:35:27;14.77;;;4.87;;
10882;SDS011;5494;51.796;10.952;2023-03-04T01:37:55;11.57;;;4.87;;
10882;SDS011;5494;51.796;10.952;2023-03-04T01:40:23;7.70;;;4.17;;
10882;SDS011;5494;51.796;10.952;2023-03-04T01:42:53;22.57;;;5.43;;
10882;SDS011;5494;51.796;10.952;2023-03-04T01:45:21;15.70;;;5.32;;
10882;SDS011;5494;51.796;10.952;2023-03-04T01:47:50;13.85;;;5.75;;
10882;SDS011;5494;51.796;10.952;2023-03-04T01:50:20;12.23;;;4.90;;
10882;SDS011;5494;51.796;10.952;2023-03-04T01:52:57;11.93;;;5.43;;
10882;SDS011;5494;51.796;10.952;2023-03-04T01:55:25;13.83;;;4.53;;
10882;SDS011;5494;51.796;10.952;2023-03-04T01:57:55;7.97;;;4.90;;
10882;SDS011;5494;51.796;10.952;2023-03-04T02:00:25;11.25;;;4.65;;
10882;SDS011;5494;51.796;10.952;2023-03-04T02:02:59;11.07;;;5.27;;
10882;SDS011;5494;51.796;10.952;2023-03-04T02:05:32;9.73;;;4.83;;
10882;SDS011;5494;51.796;10.952;2023-03-04T02:08:03;12.57;;;4.90;;
10882;SDS011;5494;51.796;10.952;2023-03-04T02:10:34;11.97;;;4.47;;
10882;SDS011;5494;51.796;10.952;2023-03-04T02:13:04;17.30;;;4.80;;
10882;SDS011;5494;51.796;10.952;2023-03-04T02:15:32;12.77;;;4.30;;
10882;SDS011;5494;51.796;10.952;2023-03-04T02:18:03;13.07;;;4.80;;
10882;SDS011;5494;51.796;10.952;2023-03-04T02:20:43;11.43;;;4.03;;
10882;SDS011;5494;51.796;10.952;2023-03-04T02:23:22;13.43;;;4.10;;
10882;SDS011;5494;51.796;10.952;2023-03-04T02:26:08;14.50;;;5.43;;
10882;SDS011;5494;51.796;10.952;2023-03-04T02:28:43;14.80;;;4.63;;
10882;SDS011;5494;51.796;10.952;2023-03-04T02:31:18;11.83;;;4.33;;
10882;SDS011;5494;51.796;10.952;2023-03-04T02:33:52;12.37;;;4.63;;
10882;SDS011;5494;51.796;10.952;2023-03-04T02:36:25;11.17;;;5.00;;
10882;SDS011;5494;51.796;10.952;2023-03-04T02:38:56;15.03;;;4.90;;
10882;SDS011;5494;51.796;10.952;2023-03-04T02:41:32;10.87;;;4.60;;
10882;SDS011;5494;51.796;10.952;2023-03-04T02:44:00;12.83;;;5.27;;
10882;SDS011;5494;51.796;10.952;2023-03-04T02:46:28;13.77;;;5.90;;
10882;SDS011;5494;51.796;10.952;2023-03-04T02:48:56;18.07;;;5.00;;
10882;SDS011;5494;51.796;10.952;2023-03-04T02:51:26;13.47;;;4.30;;
10882;SDS011;5494;51.796;10.952;2023-03-04T02:53:54;16.47;;;5.37;;
10882;SDS011;5494;51.796;10.952;2023-03-04T02:56:22;12.50;;;4.90;;
10882;SDS011;5494;51.796;10.952;2023-03-04T02:58:51;12.93;;;5.23;;
10882;SDS011;5494;51.796;10.952;2023-03-04T03:01:19;7.50;;;4.30;;
10882;SDS011;5494;51.796;10.952;2023-03-04T03:03:47;15.67;;;4.67;;
10882;SDS011;5494;51.796;10.952;2023-03-04T03:06:15;11.27;;;4.40;;
10882;SDS011;5494;51.796;10.952;2023-03-04T03:08:43;6.63;;;3.80;;
10882;SDS011;5494;51.796;10.952;2023-03-04T03:11:11;10.50;;;4.47;;
10882;SDS011;5494;51.796;10.952;2023-03-04T03:13:39;7.60;;;4.03;;
10882;SDS011;5494;51.796;10.952;2023-03-04T03:16:09;13.03;;;4.50;;
10882;SDS011;5494;51.796;10.952;2023-03-04T03:18:37;7.17;;;3.43;;
10882;SDS011;5494;51.796;10.952;2023-03-04T03:21:07;12.30;;;3.73;;
10882;SDS011;5494;51.796;10.952;2023-03-04T03:23:35;11.20;;;3.47;;
10882;SDS011;5494;51.796;10.952;2023-03-04T03:26:05;10.23;;;3.57;;
10882;SDS011;5494;51.796;10.952;2023-03-04T03:28:33;10.43;;;3.70;;
10882;SDS011;5494;51.796;10.952;2023-03-04T03:31:01;12.37;;;3.87;;
10882;SDS011;5494;51.796;10.952;2023-03-04T03:33:31;7.53;;;3.67;;
10882;SDS011;5494;51.796;10.952;2023-03-04T03:35:59;11.63;;;3.63;;
10882;SDS011;5494;51.796;10.952;2023-03-04T03:38:28;12.47;;;4.83;;
10882;SDS011;5494;51.796;10.952;2023-03-04T03:40:56;8.87;;;3.70;;
10882;SDS011;5494;51.796;10.952;2023-03-04T03:43:23;10.63;;;4.30;;
10882;SDS011;5494;51.796;10.952;2023-03-04T03:45:51;10.07;;;4.17;;
10882;SDS011;5494;51.796;10.952;2023-03-04T03:48:20;11.00;;;3.90;;
10882;SDS011;5494;51.796;10.952;2023-03-04T03:50:49;11.07;;;4.83;;
10882;SDS011;5494;51.796;10.952;2023-03-04T03:53:17;10.63;;;3.60;;
10882;SDS011;5494;51.796;10.952;2023-03-04T03:55:45;10.07;;;3.93;;
10882;SDS011;5494;51.796;10.952;2023-03-04T03:58:13;9.10;;;3.73;;
10882;SDS011;5494;51.796;10.952;2023-03-04T04:00:41;10.13;;;4.10;;
10882;SDS011;5494;51.796;10.952;2023-03-04T04:03:09;10.23;;;3.60;;
10882;SDS011;5494;51.796;10.952;2023-03-04T04:05:41;10.07;;;3.70;;
10882;SDS011;5494;51.796;10.952;2023-03-04T04:08:11;6.47;;;3.00;;
10882;SDS011;5494;51.796;10.952;2023-03-04T04:10:40;9.10;;;3.07;;
10882;SDS011;5494;51.796;10.952;2023-03-04T04:13:08;8.67;;;3.17;;
10882;SDS011;5494;51.796;10.952;2023-03-04T04:15:37;6.70;;;2.87;;
10882;SDS011;5494;51.796;10.952;2023-03-04T04:18:06;6.67;;;3.00;;
10882;SDS011;5494;51.796;10.952;2023-03-04T04:20:35;7.10;;;2.87;;
10882;SDS011;5494;51.796;10.952;2023-03-04T04:23:03;11.23;;;3.70;;
10882;SDS011;5494;51.796;10.952;2023-03-04T04:25:32;5.70;;;3.07;;
10882;SDS011;5494;51.796;10.952;2023-03-04T04:28:00;8.67;;;3.00;;
10882;SDS011;5494;51.796;10.952;2023-03-04T04:30:28;10.83;;;3.00;;
10882;SDS011;5494;51.796;10.952;2023-03-04T04:32:56;9.40;;;3.53;;
10882;SDS011;5494;51.796;10.952;2023-03-04T04:35:26;8.30;;;3.03;;
10882;SDS011;5494;51.796;10.952;2023-03-04T04:37:55;9.27;;;2.60;;
10882;SDS011;5494;51.796;10.952;2023-03-04T04:40:23;10.67;;;3.03;;
10882;SDS011;5494;51.796;10.952;2023-03-04T04:42:52;6.33;;;2.53;;
10882;SDS011;5494;51.796;10.952;2023-03-04T04:45:20;5.60;;;2.50;;
10882;SDS011;5494;51.796;10.952;2023-03-04T04:47:50;7.73;;;2.80;;
10882;SDS011;5494;51.796;10.952;2023-03-04T04:50:18;6.23;;;2.40;;
10882;SDS011;5494;51.796;10.952;2023-03-04T04:52:46;6.80;;;2.60;;
10882;SDS011;5494;51.796;10.952;2023-03-04T04:55:14;7.43;;;3.20;;
10882;SDS011;5494;51.796;10.952;2023-03-04T04:57:43;4.90;;;2.23;;
10882;SDS011;5494;51.796;10.952;2023-03-04T05:00:13;6.30;;;2.17;;
10882;SDS011;5494;51.796;10.952;2023-03-04T05:02:43;7.70;;;2.77;;
10882;SDS011;5494;51.796;10.952;2023-03-04T05:05:11;5.13;;;2.50;;
10882;SDS011;5494;51.796;10.952;2023-03-04T05:07:39;10.13;;;3.47;;
10882;SDS011;5494;51.796;10.952;2023-03-04T05:10:07;6.57;;;2.80;;
10882;SDS011;5494;51.796;10.952;2023-03-04T05:12:37;5.47;;;2.30;;
10882;SDS011;5494;51.796;10.952;2023-03-04T05:15:06;4.70;;;2.37;;
10882;SDS011;5494;51.796;10.952;2023-03-04T05:17:39;7.97;;;2.33;;
10882;SDS011;5494;51.796;10.952;2023-03-04T05:20:07;6.70;;;2.37;;
10882;SDS011;5494;51.796;10.952;2023-03-04T05:22:36;3.50;;;1.90;;
10882;SDS011;5494;51.796;10.952;2023-03-04T05:25:07;8.37;;;2.30;;
10882;SDS011;5494;51.796;10.952;2023-03-04T05:27:36;6.07;;;1.90;;
10882;SDS011;5494;51.796;10.952;2023-03-04T05:30:04;6.20;;;1.80;;
10882;SDS011;5494;51.796;10.952;2023-03-04T05:32:34;8.27;;;2.10;;
10882;SDS011;5494;51.796;10.952;2023-03-04T05:35:04;5.33;;;1.70;;
10882;SDS011;5494;51.796;10.952;2023-03-04T05:37:33;8.93;;;1.83;;
10882;SDS011;5494;51.796;10.952;2023-03-04T05:40:01;5.30;;;1.97;;
10882;SDS011;5494;51.796;10.952;2023-03-04T05:42:30;8.40;;;2.17;;
10882;SDS011;5494;51.796;10.952;2023-03-04T05:44:58;4.37;;;1.80;;
10882;SDS011;5494;51.796;10.952;2023-03-04T05:47:26;4.67;;;2.20;;
10882;SDS011;5494;51.796;10.952;2023-03-04T05:49:54;3.93;;;1.70;;
10882;SDS011;5494;51.796;10.952;2023-03-04T05:52:24;3.17;;;1.77;;
10882;SDS011;5494;51.796;10.952;2023-03-04T05:54:52;6.33;;;1.73;;
10882;SDS011;5494;51.796;10.952;2023-03-04T05:57:20;3.30;;;1.53;;
10882;SDS011;5494;51.796;10.952;2023-03-04T05:59:48;3.40;;;1.17;;
10882;SDS011;5494;51.796;10.952;2023-03-04T06:02:16;4.83;;;1.20;;
10882;SDS011;5494;51.796;10.952;2023-03-04T06:04:44;6.47;;;2.17;;
10882;SDS011;5494;51.796;10.952;2023-03-04T06:07:12;2.10;;;1.10;;
10882;SDS011;5494;51.796;10.952;2023-03-04T06:09:41;2.80;;;1.30;;
10882;SDS011;5494;51.796;10.952;2023-03-04T06:12:10;3.17;;;1.60;;
10882;SDS011;5494;51.796;10.952;2023-03-04T06:14:38;2.10;;;1.20;;
10882;SDS011;5494;51.796;10.952;2023-03-04T06:17:06;7.37;;;1.53;;
10882;SDS011;5494;51.796;10.952;2023-03-04T06:19:35;4.63;;;1.40;;
10882;SDS011;5494;51.796;10.952;2023-03-04T06:22:03;2.97;;;1.10;;
10882;SDS011;5494;51.796;10.952;2023-03-04T06:24:31;3.10;;;1.40;;
10882;SDS011;5494;51.796;10.952;2023-03-04T06:27:01;1.33;;;1.17;;
10882;SDS011;5494;51.796;10.952;2023-03-04T06:29:29;3.30;;;1.07;;
10882;SDS011;5494;51.796;10.952;2023-03-04T06:31:57;3.93;;;1.30;;
10882;SDS011;5494;51.796;10.952;2023-03-04T06:34:25;2.70;;;1.00;;
10882;SDS011;5494;51.796;10.952;2023-03-04T06:36:55;3.53;;;0.93;;
10882;SDS011;5494;51.796;10.952;2023-03-04T06:39:22;5.30;;;0.90;;
10882;SDS011;5494;51.796;10.952;2023-03-04T06:41:50;0.93;;;0.80;;
10882;SDS011;5494;51.796;10.952;2023-03-04T06:44:20;2.43;;;1.07;;
10882;SDS011;5494;51.796;10.952;2023-03-04T06:46:48;5.20;;;0.90;;
10882;SDS011;5494;51.796;10.952;2023-03-04T06:49:16;1.90;;;0.90;;
10882;SDS011;5494;51.796;10.952;2023-03-04T06:51:44;2.43;;;1.00;;
10882;SDS011;5494;51.796;10.952;2023-03-04T06:54:12;2.80;;;1.33;;
10882;SDS011;5494;51.796;10.952;2023-03-04T06:56:40;1.80;;;0.97;;
10882;SDS011;5494;51.796;10.952;2023-03-04T06:59:08;6.93;;;1.50;;
10882;SDS011;5494;51.796;10.952;2023-03-04T07:01:37;2.50;;;1.10;;
10882;SDS011;5494;51.796;10.952;2023-03-04T07:04:05;5.00;;;1.00;;
10882;SDS011;5494;51.796;10.952;2023-03-04T07:06:33;2.13;;;0.73;;
10882;SDS011;5494;51.796;10.952;2023-03-04T07:09:01;2.10;;;0.90;;
10882;SDS011;5494;51.796;10.952;2023-03-04T07:11:29;2.03;;;0.93;;
10882;SDS011;5494;51.796;10.952;2023-03-04T07:13:57;1.80;;;0.80;;
10882;SDS011;5494;51.796;10.952;2023-03-04T07:16:25;3.20;;;0.80;;
10882;SDS011;5494;51.796;10.952;2023-03-04T07:18:57;1.40;;;0.67;;
10882;SDS011;5494;51.796;10.952;2023-03-04T07:21:25;1.43;;;0.80;;
10882;SDS011;5494;51.796;10.952;2023-03-04T07:23:53;1.87;;;0.67;;
10882;SDS011;5494;51.796;10.952;2023-03-04T07:26:21;5.60;;;0.90;;
10882;SDS011;5494;51.796;10.952;2023-03-04T07:28:50;0.50;;;0.50;;
10882;SDS011;5494;51.796;10.952;2023-03-04T07:31:20;1.70;;;0.50;;
10882;SDS011;5494;51.796;10.952;2023-03-04T07:33:54;1.53;;;0.77;;
10882;SDS011;5494;51.796;10.952;2023-03-04T07:36:26;1.27;;;0.53;;
10882;SDS011;5494;51.796;10.952;2023-03-04T07:38:54;1.40;;;0.53;;
10882;SDS011;5494;51.796;10.952;2023-03-04T07:41:23;1.33;;;0.80;;
10882;SDS011;5494;51.796;10.952;2023-03-04T07:43:52;2.27;;;0.87;;
10882;SDS011;5494;51.796;10.952;2023-03-04T07:46:22;2.17;;;0.47;;
10882;SDS011;5494;51.796;10.952;2023-03-04T07:48:51;0.80;;;0.60;;
10882;SDS011;5494;51.796;10.952;2023-03-04T07:51:22;1.27;;;0.50;;
10882;SDS011;5494;51.796;10.952;2023-03-04T07:53:55;1.77;;;0.40;;
10882;SDS011;5494;51.796;10.952;2023-03-04T07:56:26;2.70;;;0.93;;
10882;SDS011;5494;51.796;10.952;2023-03-04T07:58:57;2.00;;;0.70;;
10882;SDS011;5494;51.796;10.952;2023-03-04T08:01:27;1.80;;;0.50;;
10882;SDS011;5494;51.796;10.952;2023-03-04T08:03:57;2.33;;;0.67;;
10882;SDS011;5494;51.796;10.952;2023-03-04T08:06:27;2.77;;;1.13;;
10882;SDS011;5494;51.796;10.952;2023-03-04T08:08:56;0.53;;;0.50;;
10882;SDS011;5494;51.796;10.952;2023-03-04T08:11:27;0.50;;;0.50;;
10882;SDS011;5494;51.796;10.952;2023-03-04T08:13:56;1.37;;;0.57;;
10882;SDS011;5494;51.796;10.952;2023-03-04T08:16:25;2.47;;;0.80;;
10882;SDS011;5494;51.796;10.952;2023-03-04T08:18:55;1.23;;;0.70;;
10882;SDS011;5494;51.796;10.952;2023-03-04T08:21:25;1.63;;;0.80;;
10882;SDS011;5494;51.796;10.952;2023-03-04T08:23:56;1.57;;;1.20;;
10882;SDS011;5494;51.796;10.952;2023-03-04T08:26:28;2.40;;;1.00;;
10882;SDS011;5494;51.796;10.952;2023-03-04T08:29:00;1.63;;;1.50;;
10882;SDS011;5494;51.796;10.952;2023-03-04T08:31:31;4.17;;;1.53;;
10882;SDS011;5494;51.796;10.952;2023-03-04T08:34:00;3.97;;;1.60;;
10882;SDS011;5494;51.796;10.952;2023-03-04T08:36:31;5.43;;;3.80;;
10882;SDS011;5494;51.796;10.952;2023-03-04T08:38:59;3.70;;;2.30;;
10882;SDS011;5494;51.796;10.952;2023-03-04T08:41:27;9.77;;;7.07;;
10882;SDS011;5494;51.796;10.952;2023-03-04T08:43:55;1.50;;;1.30;;
10882;SDS011;5494;51.796;10.952;2023-03-04T08:46:23;0.87;;;0.60;;
10882;SDS011;5494;51.796;10.952;2023-03-04T08:48:51;1.17;;;0.83;;
10882;SDS011;5494;51.796;10.952;2023-03-04T08:51:19;13.50;;;7.33;;
10882;SDS011;5494;51.796;10.952;2023-03-04T08:53:48;2.27;;;0.83;;
10882;SDS011;5494;51.796;10.952;2023-03-04T08:56:17;1.80;;;1.20;;
10882;SDS011;5494;51.796;10.952;2023-03-04T08:58:45;1.23;;;1.10;;
10882;SDS011;5494;51.796;10.952;2023-03-04T09:01:13;2.43;;;1.50;;
10882;SDS011;5494;51.796;10.952;2023-03-04T09:03:42;4.83;;;2.30;;
10882;SDS011;5494;51.796;10.952;2023-03-04T09:06:11;32.03;;;13.87;;
10882;SDS011;5494;51.796;10.952;2023-03-04T09:08:43;1.33;;;0.80;;
10882;SDS011;5494;51.796;10.952;2023-03-04T09:11:13;11.93;;;5.10;;
10882;SDS011;5494;51.796;10.952;2023-03-04T09:13:42;4.13;;;2.60;;
10882;SDS011;5494;51.796;10.952;2023-03-04T09:16:11;1.50;;;1.23;;
10882;SDS011;5494;51.796;10.952;2023-03-04T09:18:41;8.10;;;6.53;;
10882;SDS011;5494;51.796;10.952;2023-03-04T09:21:09;8.20;;;7.20;;
10882;SDS011;5494;51.796;10.952;2023-03-04T09:23:38;1.33;;;0.90;;
10882;SDS011;5494;51.796;10.952;2023-03-04T09:26:14;2.03;;;1.10;;
10882;SDS011;5494;51.796;10.952;2023-03-04T09:28:48;1.83;;;1.10;;
10882;SDS011;5494;51.796;10.952;2023-03-04T09:31:18;6.03;;;5.47;;
10882;SDS011;5494;51.796;10.952;2023-03-04T09:33:47;9.13;;;7.27;;
10882;SDS011;5494;51.796;10.952;2023-03-04T09:36:15;4.43;;;4.03;;
10882;SDS011;5494;51.796;10.952;2023-03-04T09:38:44;2.20;;;1.77;;
10882;SDS011;5494;51.796;10.952;2023-03-04T09:41:14;1.83;;;1.20;;
10882;SDS011;5494;51.796;10.952;2023-03-04T09:43:47;3.23;;;1.07;;
10882;SDS011;5494;51.796;10.952;2023-03-04T09:46:21;1.30;;;1.00;;
10882;SDS011;5494;51.796;10.952;2023-03-04T09:48:55;3.23;;;1.30;;
10882;SDS011;5494;51.796;10.952;2023-03-04T09:51:28;4.90;;;1.10;;
10882;SDS011;5494;51.796;10.952;2023-03-04T09:54:14;3.07;;;1.30;;
10882;SDS011;5494;51.796;10.952;2023-03-04T09:57:03;3.03;;;1.10;;
10882;SDS011;5494;51.796;10.952;2023-03-04T09:59:52;1.57;;;1.23;;
10882;SDS011;5494;51.796;10.952;2023-03-04T10:02:43;3.77;;;0.93;;
10882;SDS011;5494;51.796;10.952;2023-03-04T10:05:31;2.43;;;1.20;;
10882;SDS011;5494;51.796;10.952;2023-03-04T10:08:06;2.63;;;0.80;;
10882;SDS011;5494;51.796;10.952;2023-03-04T10:10:53;1.60;;;1.00;;
10882;SDS011;5494;51.796;10.952;2023-03-04T10:13:27;1.07;;;0.80;;
10882;SDS011;5494;51.796;10.952;2023-03-04T10:16:04;13.33;;;6.00;;
10882;SDS011;5494;51.796;10.952;2023-03-04T10:18:39;8.60;;;4.13;;
10882;SDS011;5494;51.796;10.952;2023-03-04T10:21:16;5.77;;;3.20;;
10882;SDS011;5494;51.796;10.952;2023-03-04T10:23:52;6.40;;;3.33;;
10882;SDS011;5494;51.796;10.952;2023-03-04T10:26:23;8.37;;;3.23;;
10882;SDS011;5494;51.796;10.952;2023-03-04T10:28:59;3.00;;;1.87;;
10882;SDS011;5494;51.796;10.952;2023-03-04T10:31:35;5.07;;;1.90;;
10882;SDS011;5494;51.796;10.952;2023-03-04T10:34:08;3.67;;;1.93;;
10882;SDS011;5494;51.796;10.952;2023-03-04T10:36:45;3.50;;;1.20;;
10882;SDS011;5494;51.796;10.952;2023-03-04T10:39:29;2.50;;;1.40;;
10882;SDS011;5494;51.796;10.952;2023-03-04T10:42:02;2.47;;;0.90;;
10882;SDS011;5494;51.796;10.952;2023-03-04T10:44:34;2.33;;;1.10;;
10882;SDS011;5494;51.796;10.952;2023-03-04T10:47:08;1.50;;;1.10;;
10882;SDS011;5494;51.796;10.952;2023-03-04T10:49:48;1.90;;;1.47;;
10882;SDS011;5494;51.796;10.952;2023-03-04T10:52:22;1.27;;;1.03;;
10882;SDS011;5494;51.796;10.952;2023-03-04T10:54:56;1.40;;;1.10;;
10882;SDS011;5494;51.796;10.952;2023-03-04T10:57:31;5.37;;;2.77;;
10882;SDS011;5494;51.796;10.952;2023-03-04T11:00:17;13.17;;;6.70;;
10882;SDS011;5494;51.796;10.952;2023-03-04T11:03:13;18.50;;;8.40;;
10882;SDS011;5494;51.796;10.952;2023-03-04T11:06:05;17.10;;;8.67;;
10882;SDS011;5494;51.796;10.952;2023-03-04T11:08:41;21.03;;;10.90;;
10882;SDS011;5494;51.796;10.952;2023-03-04T11:11:20;10.10;;;5.13;;
10882;SDS011;5494;51.796;10.952;2023-03-04T11:14:00;9.43;;;4.80;;
10882;SDS011;5494;51.796;10.952;2023-03-04T11:16:44;18.23;;;8.50;;
10882;SDS011;5494;51.796;10.952;2023-03-04T11:19:21;3.73;;;2.00;;
10882;SDS011;5494;51.796;10.952;2023-03-04T11:21:55;9.37;;;4.50;;
10882;SDS011;5494;51.796;10.952;2023-03-04T11:24:29;8.00;;;3.87;;
10882;SDS011;5494;51.796;10.952;2023-03-04T11:27:02;4.90;;;2.20;;
10882;SDS011;5494;51.796;10.952;2023-03-04T11:29:35;4.63;;;2.43;;
10882;SDS011;5494;51.796;10.952;2023-03-04T11:32:12;3.83;;;2.03;;
10882;SDS011;5494;51.796;10.952;2023-03-04T11:34:47;3.80;;;1.97;;
10882;SDS011;5494;51.796;10.952;2023-03-04T11:37:23;7.03;;;2.20;;
10882;SDS011;5494;51.796;10.952;2023-03-04T11:40:02;2.67;;;1.50;;
10882;SDS011;5494;51.796;10.952;2023-03-04T11:42:38;3.00;;;1.60;;
10882;SDS011;5494;51.796;10.952;2023-03-04T11:45:13;4.03;;;1.60;;
10882;SDS011;5494;51.796;10.952;2023-03-04T11:47:58;2.67;;;1.47;;
10882;SDS011;5494;51.796;10.952;2023-03-04T11:50:40;2.40;;;1.03;;
10882;SDS011;5494;51.796;10.952;2023-03-04T11:53:23;3.73;;;1.30;;
10882;SDS011;5494;51.796;10.952;2023-03-04T11:56:25;3.03;;;1.43;;
10882;SDS011;5494;51.796;10.952;2023-03-04T11:59:02;4.10;;;1.67;;
10882;SDS011;5494;51.796;10.952;2023-03-04T12:01:51;3.73;;;1.60;;
10882;SDS011;5494;51.796;10.952;2023-03-04T12:04:57;3.23;;;1.30;;
10882;SDS011;5494;51.796;10.952;2023-03-04T12:08:02;4.73;;;1.90;;
10882;SDS011;5494;51.796;10.952;2023-03-04T12:10:50;4.10;;;1.37;;
10882;SDS011;5494;51.796;10.952;2023-03-04T12:13:41;5.60;;;2.10;;
10882;SDS011;5494;51.796;10.952;2023-03-04T12:16:40;8.70;;;3.60;;
10882;SDS011;5494;51.796;10.952;2023-03-04T12:19:51;9.63;;;4.37;;
10882;SDS011;5494;51.796;10.952;2023-03-04T12:22:43;4.83;;;2.63;;
10882;SDS011;5494;51.796;10.952;2023-03-04T12:25:19;12.10;;;4.97;;
10882;SDS011;5494;51.796;10.952;2023-03-04T12:28:09;12.13;;;4.87;;
10882;SDS011;5494;51.796;10.952;2023-03-04T12:31:06;11.10;;;4.43;;
10882;SDS011;5494;51.796;10.952;2023-03-04T12:34:03;14.20;;;5.00;;
10882;SDS011;5494;51.796;10.952;2023-03-04T12:37:03;11.43;;;4.97;;
10882;SDS011;5494;51.796;10.952;2023-03-04T12:39:57;10.03;;;4.30;;
10882;SDS011;5494;51.796;10.952;2023-03-04T12:42:47;8.90;;;4.23;;
10882;SDS011;5494;51.796;10.952;2023-03-04T12:45:30;4.63;;;2.90;;
10882;SDS011;5494;51.796;10.952;2023-03-04T12:48:15;8.23;;;4.07;;
10882;SDS011;5494;51.796;10.952;2023-03-04T12:50:59;7.87;;;3.20;;
10882;SDS011;5494;51.796;10.952;2023-03-04T12:53:47;5.43;;;2.00;;
10882;SDS011;5494;51.796;10.952;2023-03-04T12:56:31;5.50;;;2.33;;
10882;SDS011;5494;51.796;10.952;2023-03-04T12:59:11;4.87;;;2.03;;
10882;SDS011;5494;51.796;10.952;2023-03-04T13:01:44;6.30;;;2.23;;
10882;SDS011;5494;51.796;10.952;2023-03-04T13:04:22;3.87;;;1.73;;
10882;SDS011;5494;51.796;10.952;2023-03-04T13:07:05;5.40;;;2.60;;
10882;SDS011;5494;51.796;10.952;2023-03-04T13:09:46;7.23;;;2.90;;
10882;SDS011;5494;51.796;10.952;2023-03-04T13:12:22;5.87;;;2.97;;
10882;SDS011;5494;51.796;10.952;2023-03-04T13:17:52;7.00;;;2.63;;
10882;SDS011;5494;51.796;10.952;2023-03-04T13:20:24;5.00;;;3.00;;
10882;SDS011;5494;51.796;10.952;2023-03-04T13:23:19;7.40;;;3.50;;
10882;SDS011;5494;51.796;10.952;2023-03-04T13:26:10;7.23;;;2.83;;
10882;SDS011;5494;51.796;10.952;2023-03-04T13:28:51;8.00;;;3.10;;
10882;SDS011;5494;51.796;10.952;2023-03-04T13:34:41;8.57;;;3.97;;
10882;SDS011;5494;51.796;10.952;2023-03-04T13:37:25;7.67;;;3.97;;
10882;SDS011;5494;51.796;10.952;2023-03-04T13:43:19;7.87;;;3.53;;
10882;SDS011;5494;51.796;10.952;2023-03-04T13:45:53;6.27;;;2.93;;
10882;SDS011;5494;51.796;10.952;2023-03-04T13:48:22;5.30;;;2.80;;
10882;SDS011;5494;51.796;10.952;2023-03-04T13:50:56;3.17;;;1.97;;
10882;SDS011;5494;51.796;10.952;2023-03-04T13:53:33;4.17;;;1.90;;
10882;SDS011;5494;51.796;10.952;2023-03-04T13:56:20;3.07;;;1.90;;
10882;SDS011;5494;51.796;10.952;2023-03-04T13:59:00;4.90;;;2.00;;
10882;SDS011;5494;51.796;10.952;2023-03-04T14:01:57;5.30;;;2.00;;
10882;SDS011;5494;51.796;10.952;2023-03-04T14:04:37;4.23;;;2.77;;
10882;SDS011;5494;51.796;10.952;2023-03-04T14:07:17;6.27;;;3.30;;
10882;SDS011;5494;51.796;10.952;2023-03-04T14:09:54;4.00;;;2.77;;
10882;SDS011;5494;51.796;10.952;2023-03-04T14:12:25;8.53;;;3.40;;
10882;SDS011;5494;51.796;10.952;2023-03-04T14:14:58;4.97;;;2.77;;
10882;SDS011;5494;51.796;10.952;2023-03-04T14:17:30;5.73;;;2.80;;
10882;SDS011;5494;51.796;10.952;2023-03-04T14:20:02;5.17;;;2.57;;
10882;SDS011;5494;51.796;10.952;2023-03-04T14:22:47;8.10;;;2.60;;
10882;SDS011;5494;51.796;10.952;2023-03-04T14:25:19;5.33;;;2.40;;
10882;SDS011;5494;51.796;10.952;2023-03-04T14:28:00;4.53;;;2.20;;
10882;SDS011;5494;51.796;10.952;2023-03-04T14:30:32;4.87;;;2.20;;
10882;SDS011;5494;51.796;10.952;2023-03-04T14:33:13;7.47;;;2.23;;
10882;SDS011;5494;51.796;10.952;2023-03-04T14:35:46;4.13;;;2.27;;
10882;SDS011;5494;51.796;10.952;2023-03-04T14:38:18;7.43;;;2.80;;
10882;SDS011;5494;51.796;10.952;2023-03-04T14:40:52;8.20;;;2.67;;
10882;SDS011;5494;51.796;10.952;2023-03-04T14:43:26;3.40;;;1.80;;
10882;SDS011;5494;51.796;10.952;2023-03-04T14:45:59;6.60;;;2.10;;
10882;SDS011;5494;51.796;10.952;2023-03-04T14:48:29;5.40;;;1.60;;
10882;SDS011;5494;51.796;10.952;2023-03-04T14:51:00;4.10;;;1.97;;
10882;SDS011;5494;51.796;10.952;2023-03-04T14:53:29;3.03;;;1.70;;
10882;SDS011;5494;51.796;10.952;2023-03-04T14:55:59;5.03;;;1.90;;
10882;SDS011;5494;51.796;10.952;2023-03-04T14:58:30;6.17;;;2.00;;
10882;SDS011;5494;51.796;10.952;2023-03-04T15:01:12;4.90;;;2.27;;
10882;SDS011;5494;51.796;10.952;2023-03-04T15:03:44;4.57;;;2.47;;
10882;SDS011;5494;51.796;10.952;2023-03-04T15:06:23;6.03;;;2.37;;
10882;SDS011;5494;51.796;10.952;2023-03-04T15:08:55;6.57;;;2.87;;
10882;SDS011;5494;51.796;10.952;2023-03-04T15:11:26;7.43;;;2.97;;
10882;SDS011;5494;51.796;10.952;2023-03-04T15:13:59;4.47;;;2.87;;
10882;SDS011;5494;51.796;10.952;2023-03-04T15:16:51;4.33;;;2.70;;
10882;SDS011;5494;51.796;10.952;2023-03-04T15:19:23;4.13;;;2.80;;
10882;SDS011;5494;51.796;10.952;2023-03-04T15:22:01;6.90;;;3.00;;
10882;SDS011;5494;51.796;10.952;2023-03-04T15:24:31;5.50;;;2.87;;
10882;SDS011;5494;51.796;10.952;2023-03-04T15:26:59;6.63;;;2.60;;